createdAt,value
2022-11-26T00:01:14.245Z,18.05
2022-11-26T00:03:42.135Z,18.05
2022-11-26T00:06:50.494Z,23.13
2022-11-26T00:09:19.074Z,16.75
2022-11-26T00:11:46.269Z,17.08
2022-11-26T00:14:16.457Z,24.05
2022-11-26T00:16:44.023Z,20.50
2022-11-26T00:19:11.271Z,19.77
2022-11-26T00:21:39.481Z,15.63
2022-11-26T00:24:25.173Z,15.45
2022-11-26T00:26:52.349Z,18.90
2022-11-26T00:29:19.546Z,12.02
2022-11-26T00:31:46.739Z,17.45
2022-11-26T00:34:13.946Z,11.88
2022-11-26T00:36:42.190Z,16.50
2022-11-26T00:39:18.192Z,16.48
2022-11-26T00:41:48.120Z,21.98
2022-11-26T00:44:19.317Z,15.57
2022-11-26T00:46:46.541Z,15.60
2022-11-26T00:49:13.741Z,12.40
2022-11-26T00:51:41.037Z,15.30
2022-11-26T00:54:10.034Z,18.10
2022-11-26T00:56:38.273Z,14.82
2022-11-26T00:59:05.678Z,15.43
2022-11-26T01:01:33.132Z,16.23
2022-11-26T01:04:00.454Z,15.68
2022-11-26T01:06:35.862Z,17.77
2022-11-26T01:09:04.998Z,13.38
2022-11-26T01:11:32.287Z,15.52
2022-11-26T01:13:59.614Z,19.92
2022-11-26T01:16:31.609Z,16.60
2022-11-26T01:18:59.386Z,17.27
2022-11-26T01:21:27.291Z,12.32
2022-11-26T01:23:54.489Z,17.00
2022-11-26T01:26:23.867Z,14.90
2022-11-26T01:28:51.198Z,14.82
2022-11-26T01:31:20.976Z,12.88
2022-11-26T01:33:48.242Z,11.30
2022-11-26T01:36:37.615Z,14.88
2022-11-26T01:39:23.302Z,15.93
2022-11-26T01:42:02.079Z,14.75
2022-11-26T01:44:31.539Z,13.68
2022-11-26T01:46:59.341Z,16.80
2022-11-26T01:49:27.581Z,16.73
2022-11-26T01:52:10.166Z,10.65
2022-11-26T01:54:38.523Z,13.32
2022-11-26T01:57:09.801Z,12.35
2022-11-26T01:59:39.124Z,16.85
2022-11-26T02:02:06.327Z,12.55
2022-11-26T02:04:39.360Z,17.75
2022-11-26T02:07:06.896Z,13.88
2022-11-26T02:09:34.104Z,12.27
2022-11-26T02:12:01.301Z,20.42
2022-11-26T02:14:30.719Z,12.73
2022-11-26T02:17:07.076Z,15.27
2022-11-26T02:20:17.053Z,14.63
2022-11-26T02:22:50.239Z,12.13
2022-11-26T02:25:54.676Z,17.40
2022-11-26T02:29:00.959Z,9.38
2022-11-26T02:31:42.060Z,15.18
2022-11-26T02:34:09.214Z,14.40
2022-11-26T02:37:13.342Z,14.10
2022-11-26T02:39:40.609Z,15.93
2022-11-26T02:42:27.077Z,17.30
2022-11-26T02:44:55.825Z,13.27
2022-11-26T02:47:22.999Z,15.73
2022-11-26T02:49:50.176Z,11.00
2022-11-26T02:52:17.367Z,14.13
2022-11-26T02:54:44.524Z,10.88
2022-11-26T02:57:13.295Z,16.63
2022-11-26T02:59:40.702Z,12.80
2022-11-26T03:02:35.676Z,11.90
2022-11-26T03:05:02.905Z,17.48
2022-11-26T03:07:30.691Z,15.63
2022-11-26T03:09:59.462Z,18.38
2022-11-26T03:12:26.722Z,14.35
2022-11-26T03:14:53.920Z,13.15
2022-11-26T03:17:21.134Z,15.35
2022-11-26T03:19:48.309Z,16.25
2022-11-26T03:22:15.640Z,8.65
2022-11-26T03:24:42.902Z,11.13
2022-11-26T03:27:10.124Z,15.85
2022-11-26T03:29:37.320Z,17.88
2022-11-26T03:32:04.877Z,18.60
2022-11-26T03:34:32.279Z,14.00
2022-11-26T03:36:59.457Z,14.73
2022-11-26T03:39:26.664Z,15.80
2022-11-26T03:41:53.832Z,14.38
2022-11-26T03:44:21.193Z,12.75
2022-11-26T03:46:48.363Z,15.07
2022-11-26T03:49:15.550Z,14.20
2022-11-26T03:51:42.729Z,14.35
2022-11-26T03:54:10.174Z,17.58
2022-11-26T03:56:37.352Z,16.02
2022-11-26T03:59:04.532Z,12.98
2022-11-26T04:01:31.854Z,12.65
2022-11-26T04:03:59.239Z,14.90
2022-11-26T04:06:26.471Z,11.88
2022-11-26T04:08:53.669Z,15.10
2022-11-26T04:11:20.842Z,14.07
2022-11-26T04:13:48.013Z,11.45
2022-11-26T04:16:15.272Z,12.52
2022-11-26T04:18:42.559Z,13.07
2022-11-26T04:21:09.756Z,12.07
2022-11-26T04:23:36.941Z,19.75
2022-11-26T04:26:04.562Z,14.40
2022-11-26T04:28:31.813Z,9.95
2022-11-26T04:30:58.991Z,14.35
2022-11-26T04:33:27.122Z,13.60
2022-11-26T04:35:54.456Z,14.02
2022-11-26T04:38:25.782Z,18.13
2022-11-26T04:40:53.376Z,15.77
2022-11-26T04:43:20.639Z,14.32
2022-11-26T04:45:47.873Z,14.60
2022-11-26T04:48:15.118Z,10.98
2022-11-26T04:50:42.282Z,16.52
2022-11-26T04:53:09.572Z,15.75
2022-11-26T04:55:36.746Z,15.93
2022-11-26T04:58:03.929Z,15.55
2022-11-26T05:00:31.117Z,18.38
2022-11-26T05:02:58.339Z,15.25
2022-11-26T05:05:25.552Z,12.85
2022-11-26T05:07:52.775Z,17.98
2022-11-26T05:10:20.136Z,15.30
2022-11-26T05:12:47.292Z,12.77
2022-11-26T05:15:14.467Z,18.10
2022-11-26T05:17:41.650Z,20.70
2022-11-26T05:20:09.282Z,17.15
2022-11-26T05:22:36.441Z,18.73
2022-11-26T05:25:03.878Z,18.20
2022-11-26T05:27:31.054Z,21.45
2022-11-26T05:29:58.266Z,20.95
2022-11-26T05:32:25.426Z,15.50
2022-11-26T05:34:55.670Z,16.65
2022-11-26T05:37:25.799Z,21.52
2022-11-26T05:39:52.982Z,14.82
2022-11-26T05:42:20.157Z,18.25
2022-11-26T05:44:47.321Z,14.95
2022-11-26T05:47:14.510Z,14.85
2022-11-26T05:49:41.672Z,18.55
2022-11-26T05:52:08.858Z,20.10
2022-11-26T05:54:36.181Z,14.40
2022-11-26T05:57:03.562Z,20.48
2022-11-26T05:59:30.744Z,12.93
2022-11-26T06:01:57.938Z,17.88
2022-11-26T06:04:25.194Z,15.05
2022-11-26T06:06:52.366Z,10.32
2022-11-26T06:09:19.685Z,13.68
2022-11-26T06:11:48.541Z,22.17
2022-11-26T06:14:15.925Z,17.23
2022-11-26T06:16:43.128Z,15.52
2022-11-26T06:19:11.264Z,12.90
2022-11-26T06:21:38.497Z,21.23
2022-11-26T06:24:05.988Z,13.20
2022-11-26T06:26:33.151Z,14.80
2022-11-26T06:29:00.323Z,12.68
2022-11-26T06:31:27.597Z,13.55
2022-11-26T06:33:55.389Z,14.27
2022-11-26T06:36:22.930Z,17.20
2022-11-26T06:38:50.084Z,14.20
2022-11-26T06:41:17.304Z,12.45
2022-11-26T06:43:44.466Z,16.02
2022-11-26T06:46:11.874Z,17.60
2022-11-26T06:48:39.410Z,18.15
2022-11-26T06:51:07.332Z,14.40
2022-11-26T06:53:34.733Z,13.70
2022-11-26T06:56:02.587Z,17.10
2022-11-26T06:58:29.801Z,15.05
2022-11-26T07:00:57.083Z,14.88
2022-11-26T07:03:28.023Z,9.80
2022-11-26T07:05:57.765Z,14.30
2022-11-26T07:08:24.939Z,14.30
2022-11-26T07:10:52.105Z,12.30
2022-11-26T07:13:19.345Z,8.35
2022-11-26T07:15:46.557Z,12.35
2022-11-26T07:18:13.735Z,13.82
2022-11-26T07:20:40.912Z,11.32
2022-11-26T07:23:08.086Z,6.63
2022-11-26T07:25:36.155Z,6.78
2022-11-26T07:28:03.326Z,5.20
2022-11-26T07:30:30.491Z,8.18
2022-11-26T07:32:57.630Z,8.65
2022-11-26T07:35:25.018Z,6.70
2022-11-26T07:37:52.212Z,9.10
2022-11-26T07:40:19.657Z,6.97
2022-11-26T07:42:51.863Z,7.43
2022-11-26T07:45:24.638Z,6.15
2022-11-26T07:47:51.791Z,9.90
2022-11-26T07:50:18.962Z,10.27
2022-11-26T07:52:46.123Z,6.25
2022-11-26T07:55:13.286Z,5.65
2022-11-26T07:57:40.454Z,8.02
2022-11-26T08:00:08.206Z,4.85
2022-11-26T08:02:39.121Z,4.47
2022-11-26T08:05:06.697Z,6.78
2022-11-26T08:07:35.307Z,8.02
2022-11-26T08:10:03.450Z,10.68
2022-11-26T08:12:30.636Z,7.40
2022-11-26T08:14:57.792Z,9.82
2022-11-26T08:17:24.991Z,9.68
2022-11-26T08:19:52.181Z,11.25
2022-11-26T08:22:19.351Z,10.43
2022-11-26T08:24:46.534Z,10.25
2022-11-26T08:27:13.714Z,7.55
2022-11-26T08:29:40.898Z,12.05
2022-11-26T08:32:08.131Z,9.77
2022-11-26T08:34:35.414Z,10.55
2022-11-26T08:37:02.671Z,9.27
2022-11-26T08:39:29.868Z,13.02
2022-11-26T08:41:57.098Z,9.63
2022-11-26T08:44:24.302Z,13.07
2022-11-26T08:46:51.441Z,8.27
2022-11-26T08:49:18.685Z,7.90
2022-11-26T08:51:45.948Z,14.38
2022-11-26T08:54:13.132Z,9.75
2022-11-26T08:56:40.345Z,8.43
2022-11-26T08:59:07.536Z,8.30
2022-11-26T09:01:35.034Z,11.55
2022-11-26T09:04:02.729Z,8.68
2022-11-26T09:06:30.726Z,9.70
2022-11-26T09:09:13.109Z,9.68
2022-11-26T09:11:40.466Z,11.88
2022-11-26T09:14:07.735Z,13.70
2022-11-26T09:16:35.250Z,9.40
2022-11-26T09:19:03.128Z,9.05
2022-11-26T09:21:30.395Z,12.55
2022-11-26T09:23:57.565Z,9.48
2022-11-26T09:26:25.264Z,6.20
2022-11-26T09:28:52.488Z,10.70
2022-11-26T09:31:20.018Z,12.43
2022-11-26T09:33:47.226Z,8.35
2022-11-26T09:36:18.285Z,13.05
2022-11-26T09:38:45.656Z,7.05
2022-11-26T09:41:45.442Z,10.43
2022-11-26T09:44:22.134Z,11.00
2022-11-26T09:47:13.300Z,11.20
2022-11-26T09:49:58.590Z,12.25
2022-11-26T09:52:28.596Z,10.98
2022-11-26T09:55:04.362Z,15.30
2022-11-26T09:57:51.967Z,13.27
2022-11-26T10:00:23.769Z,8.52
2022-11-26T10:02:57.405Z,12.35
2022-11-26T10:06:05.819Z,8.02
2022-11-26T10:09:06.899Z,10.80
2022-11-26T10:11:59.279Z,10.02
2022-11-26T10:14:55.141Z,10.98
2022-11-26T10:17:28.317Z,8.85
2022-11-26T10:20:13.905Z,12.32
2022-11-26T10:22:55.533Z,9.80
2022-11-26T10:25:27.286Z,11.10
2022-11-26T10:27:55.598Z,7.03
2022-11-26T10:30:27.879Z,13.77
2022-11-26T10:32:55.893Z,15.35
2022-11-26T10:35:24.867Z,12.27
2022-11-26T10:37:52.170Z,12.60
2022-11-26T10:40:29.739Z,13.15
2022-11-26T10:43:10.302Z,11.13
2022-11-26T10:45:49.905Z,12.85
2022-11-26T10:48:21.953Z,20.60
2022-11-26T10:50:55.454Z,18.30
2022-11-26T10:53:23.476Z,18.65
2022-11-26T10:55:51.873Z,24.98
2022-11-26T10:58:27.038Z,20.65
2022-11-26T11:01:02.993Z,17.10
2022-11-26T11:04:08.754Z,17.95
2022-11-26T11:06:42.809Z,17.90
2022-11-26T11:09:24.082Z,17.13
2022-11-26T11:12:18.613Z,18.80
2022-11-26T11:14:46.490Z,16.53
2022-11-26T11:17:24.271Z,20.77
2022-11-26T11:19:51.469Z,18.38
2022-11-26T11:22:21.684Z,16.98
2022-11-26T11:24:48.977Z,18.52
2022-11-26T11:27:27.405Z,24.77
2022-11-26T11:29:59.376Z,19.77
2022-11-26T11:32:34.191Z,17.90
2022-11-26T11:37:54.161Z,20.42
2022-11-26T11:40:27.295Z,15.50
2022-11-26T11:43:02.037Z,20.92
2022-11-26T11:48:30.341Z,18.77
2022-11-26T11:51:36.018Z,22.13
2022-11-26T11:54:20.278Z,22.17
2022-11-26T11:57:13.136Z,21.67
2022-11-26T12:00:09.622Z,15.60
2022-11-26T12:03:14.720Z,18.00
2022-11-26T12:06:17.347Z,19.73
2022-11-26T12:08:50.708Z,19.25
2022-11-26T12:11:17.855Z,23.15
2022-11-26T12:13:53.762Z,23.52
2022-11-26T12:16:21.300Z,18.25
2022-11-26T12:18:53.968Z,16.80
2022-11-26T12:21:35.097Z,17.13
2022-11-26T12:24:11.499Z,15.23
2022-11-26T12:26:46.965Z,21.45
2022-11-26T12:29:39.510Z,23.30
2022-11-26T12:32:22.104Z,23.23
2022-11-26T12:34:52.562Z,24.48
2022-11-26T12:37:21.263Z,19.25
2022-11-26T12:39:54.294Z,21.25
2022-11-26T12:42:33.476Z,19.92
2022-11-26T12:45:33.005Z,43.03
2022-11-26T12:48:03.170Z,42.17
2022-11-26T12:50:42.346Z,17.88
2022-11-26T12:53:31.281Z,25.63
2022-11-26T12:56:24.444Z,20.27
2022-11-26T12:59:18.098Z,19.85
2022-11-26T13:01:45.501Z,18.75
2022-11-26T13:04:36.635Z,17.55
2022-11-26T13:07:15.355Z,22.52
2022-11-26T13:09:59.006Z,18.20
2022-11-26T13:12:46.536Z,18.33
2022-11-26T13:15:24.856Z,19.67
2022-11-26T13:17:52.088Z,16.90
2022-11-26T13:20:54.333Z,18.02
2022-11-26T13:23:34.976Z,17.45
2022-11-26T13:26:15.703Z,14.30
2022-11-26T13:28:54.938Z,20.60
2022-11-26T13:31:30.983Z,18.23
2022-11-26T13:34:04.334Z,13.85
2022-11-26T13:37:05.566Z,17.63
2022-11-26T13:39:54.533Z,16.75
2022-11-26T13:42:37.321Z,20.60
2022-11-26T13:45:09.170Z,23.27
2022-11-26T13:47:42.190Z,22.60
2022-11-26T13:50:17.530Z,19.33
2022-11-26T13:53:11.396Z,19.42
2022-11-26T13:55:47.304Z,21.75
2022-11-26T13:58:20.223Z,14.50
2022-11-26T14:00:47.487Z,20.20
2022-11-26T14:03:47.540Z,18.80
2022-11-26T14:06:15.018Z,18.25
2022-11-26T14:08:46.798Z,20.23
2022-11-26T14:11:46.210Z,19.58
2022-11-26T14:14:25.522Z,16.70
2022-11-26T14:17:01.913Z,21.33
2022-11-26T14:19:41.506Z,17.63
2022-11-26T14:22:20.688Z,16.00
2022-11-26T14:24:48.105Z,18.27
2022-11-26T14:27:31.774Z,21.75
2022-11-26T14:30:08.119Z,21.00
2022-11-26T14:33:04.244Z,15.05
2022-11-26T14:35:36.369Z,17.98
2022-11-26T14:38:06.179Z,15.70
2022-11-26T14:40:35.717Z,15.98
2022-11-26T14:43:22.670Z,19.88
2022-11-26T14:46:03.546Z,15.05
2022-11-26T14:48:31.154Z,18.98
2022-11-26T14:50:59.288Z,16.15
2022-11-26T14:53:31.536Z,15.05
2022-11-26T14:55:58.953Z,18.00
2022-11-26T14:58:39.405Z,18.42
2022-11-26T15:01:15.964Z,16.70
2022-11-26T15:03:43.852Z,19.35
2022-11-26T15:06:34.886Z,19.25
2022-11-26T15:09:15.235Z,14.13
2022-11-26T15:12:01.650Z,15.57
2022-11-26T15:14:40.928Z,21.13
2022-11-26T15:17:11.683Z,17.08
2022-11-26T15:19:39.118Z,15.05
2022-11-26T15:22:08.403Z,11.77
2022-11-26T15:24:36.395Z,17.95
2022-11-26T15:27:03.804Z,17.63
2022-11-26T15:29:41.204Z,15.07
2022-11-26T15:32:24.850Z,19.60
2022-11-26T15:34:52.231Z,15.35
2022-11-26T15:37:19.527Z,17.67
2022-11-26T15:39:46.887Z,17.95
2022-11-26T15:42:40.682Z,19.85
2022-11-26T15:45:16.627Z,25.20
2022-11-26T15:47:51.210Z,18.20
2022-11-26T15:50:33.758Z,26.83
2022-11-26T15:53:13.343Z,25.35
2022-11-26T15:55:40.674Z,21.85
2022-11-26T15:58:10.235Z,21.95
2022-11-26T16:00:39.629Z,24.42
2022-11-26T16:03:41.457Z,30.75
2022-11-26T16:06:26.473Z,27.70
2022-11-26T16:12:01.560Z,26.23
2022-11-26T16:14:39.903Z,22.98
2022-11-26T16:17:13.088Z,28.42
2022-11-26T16:19:48.576Z,34.78
2022-11-26T16:22:17.359Z,31.30
2022-11-26T16:24:44.623Z,25.48
2022-11-26T16:27:17.931Z,23.00
2022-11-26T16:29:45.425Z,31.92
2022-11-26T16:32:13.243Z,36.38
2022-11-26T16:34:40.820Z,35.42
2022-11-26T16:37:27.924Z,33.35
2022-11-26T16:40:03.082Z,38.72
2022-11-26T16:42:30.867Z,38.13
2022-11-26T16:45:03.779Z,38.70
2022-11-26T16:47:33.624Z,40.42
2022-11-26T16:50:02.539Z,45.65
2022-11-26T16:52:29.943Z,40.30
2022-11-26T16:54:57.219Z,40.50
2022-11-26T16:57:26.192Z,38.10
2022-11-26T16:59:55.730Z,38.13
2022-11-26T17:02:23.524Z,34.75
2022-11-26T17:04:51.024Z,38.72
2022-11-26T17:07:30.270Z,34.13
2022-11-26T17:09:57.639Z,32.25
2022-11-26T17:12:25.479Z,33.40
2022-11-26T17:17:25.473Z,28.23
2022-11-26T17:19:53.041Z,36.20
2022-11-26T17:22:20.386Z,27.15
2022-11-26T17:24:47.718Z,29.27
2022-11-26T17:27:17.303Z,29.50
2022-11-26T17:29:45.184Z,30.52
2022-11-26T17:32:19.830Z,29.80
2022-11-26T17:34:47.709Z,29.98
2022-11-26T17:37:25.342Z,28.08
2022-11-26T17:39:52.646Z,34.28
2022-11-26T17:42:21.715Z,35.15
2022-11-26T17:44:49.767Z,29.38
2022-11-26T17:47:18.852Z,26.42
2022-11-26T17:49:46.595Z,27.05
2022-11-26T17:52:14.650Z,25.40
2022-11-26T17:54:42.319Z,30.50
2022-11-26T17:57:14.051Z,29.17
2022-11-26T17:59:41.816Z,26.08
2022-11-26T18:02:09.824Z,24.65
2022-11-26T18:04:37.398Z,27.95
2022-11-26T18:07:10.832Z,30.38
2022-11-26T18:09:38.620Z,30.27
2022-11-26T18:12:09.500Z,31.95
2022-11-26T18:14:41.093Z,27.52
2022-11-26T18:17:11.532Z,31.20
2022-11-26T18:19:43.396Z,32.97
2022-11-26T18:22:14.931Z,31.67
2022-11-26T18:24:43.424Z,28.90
2022-11-26T18:27:10.741Z,27.63
2022-11-26T18:29:38.210Z,29.42
2022-11-26T18:32:05.947Z,32.53
2022-11-26T18:34:33.333Z,29.40
2022-11-26T18:37:00.625Z,27.65
2022-11-26T18:39:28.389Z,31.27
2022-11-26T18:42:15.371Z,29.88
2022-11-26T18:44:42.997Z,26.20
2022-11-26T18:47:10.318Z,24.98
2022-11-26T18:49:38.219Z,25.42
2022-11-26T18:52:06.062Z,25.17
2022-11-26T18:54:33.356Z,27.95
2022-11-26T18:57:00.669Z,29.67
2022-11-26T18:59:28.144Z,26.13
2022-11-26T19:01:55.567Z,20.50
2022-11-26T19:04:22.940Z,24.20
2022-11-26T19:06:50.276Z,25.42
2022-11-26T19:09:19.087Z,29.73
2022-11-26T19:11:46.715Z,24.60
2022-11-26T19:14:14.922Z,28.00
2022-11-26T19:16:42.752Z,28.15
2022-11-26T19:19:10.207Z,26.75
2022-11-26T19:21:37.512Z,32.00
2022-11-26T19:24:06.399Z,24.65
2022-11-26T19:26:33.839Z,24.13
2022-11-26T19:29:03.925Z,27.13
2022-11-26T19:31:34.965Z,30.92
2022-11-26T19:34:05.914Z,32.90
2022-11-26T19:36:33.491Z,21.50
2022-11-26T19:39:01.196Z,15.13
2022-11-26T19:41:28.620Z,17.45
2022-11-26T19:43:56.045Z,27.40
2022-11-26T19:46:24.741Z,28.70
2022-11-26T19:48:52.523Z,28.23
2022-11-26T19:51:20.594Z,27.70
2022-11-26T19:53:49.130Z,33.17
2022-11-26T19:56:34.840Z,28.45
2022-11-26T19:59:02.396Z,32.70
2022-11-26T20:01:31.322Z,35.13
2022-11-26T20:03:59.704Z,49.33
2022-11-26T20:06:27.464Z,39.35
2022-11-26T20:08:55.214Z,33.00
2022-11-26T20:11:22.614Z,34.70
2022-11-26T20:13:50.168Z,38.67
2022-11-26T20:16:25.618Z,38.53
2022-11-26T20:18:53.079Z,38.42
2022-11-26T20:21:25.706Z,39.95
2022-11-26T20:23:53.827Z,40.17
2022-11-26T20:26:26.460Z,40.47
2022-11-26T20:28:53.833Z,40.45
2022-11-26T20:31:23.900Z,41.70
2022-11-26T20:33:52.712Z,53.30
2022-11-26T20:36:20.962Z,51.17
2022-11-26T20:38:52.553Z,51.55
2022-11-26T20:41:19.907Z,54.97
2022-11-26T20:43:47.488Z,50.90
2022-11-26T20:46:14.923Z,58.58
2022-11-26T20:48:43.348Z,56.42
2022-11-26T20:51:12.461Z,54.83
2022-11-26T20:53:40.117Z,58.60
2022-11-26T20:56:07.730Z,60.25
2022-11-26T20:58:35.385Z,55.58
2022-11-26T21:01:02.951Z,62.00
2022-11-26T21:03:30.415Z,57.15
2022-11-26T21:06:02.112Z,58.92
2022-11-26T21:08:29.423Z,51.92
2022-11-26T21:10:56.826Z,53.92
2022-11-26T21:13:24.190Z,49.03
2022-11-26T21:15:51.584Z,55.85
2022-11-26T21:18:18.885Z,53.70
2022-11-26T21:20:46.224Z,44.75
2022-11-26T21:23:13.680Z,41.03
2022-11-26T21:25:41.843Z,42.53
2022-11-26T21:28:09.363Z,43.60
2022-11-26T21:30:36.877Z,41.13
2022-11-26T21:33:09.101Z,44.85
2022-11-26T21:35:36.876Z,40.17
2022-11-26T21:38:04.623Z,40.70
2022-11-26T21:40:32.211Z,40.95
2022-11-26T21:42:59.513Z,38.70
2022-11-26T21:45:27.721Z,37.70
2022-11-26T21:47:55.226Z,37.38
2022-11-26T21:50:23.670Z,37.70
2022-11-26T21:52:50.983Z,36.25
2022-11-26T21:55:18.273Z,35.80
2022-11-26T21:57:45.557Z,33.95
2022-11-26T22:00:13.487Z,36.67
2022-11-26T22:02:40.823Z,35.45
2022-11-26T22:05:08.330Z,33.25
2022-11-26T22:07:35.834Z,34.33
2022-11-26T22:10:03.436Z,33.40
2022-11-26T22:12:30.700Z,36.22
2022-11-26T22:14:58.011Z,35.75
2022-11-26T22:17:25.323Z,30.50
2022-11-26T22:19:52.635Z,30.77
2022-11-26T22:22:19.951Z,26.67
2022-11-26T22:24:49.242Z,25.10
2022-11-26T22:27:16.556Z,30.77
2022-11-26T22:29:43.867Z,31.85
2022-11-26T22:32:11.171Z,33.20
2022-11-26T22:34:38.538Z,31.08
2022-11-26T22:37:05.849Z,31.75
2022-11-26T22:39:33.190Z,29.42
2022-11-26T22:42:01.728Z,27.00
2022-11-26T22:44:29.061Z,26.42
2022-11-26T22:46:56.343Z,27.92
2022-11-26T22:49:23.789Z,23.70
2022-11-26T22:51:51.155Z,16.33
2022-11-26T22:54:18.867Z,18.90
2022-11-26T22:56:46.159Z,24.88
2022-11-26T22:59:14.029Z,23.30
2022-11-26T23:01:41.376Z,22.73
2022-11-26T23:04:09.274Z,27.05
2022-11-26T23:06:37.020Z,26.95
2022-11-26T23:09:05.641Z,28.25
2022-11-26T23:11:37.632Z,34.28
2022-11-26T23:14:07.257Z,32.25
2022-11-26T23:16:35.492Z,34.17
2022-11-26T23:19:03.137Z,34.40
2022-11-26T23:21:32.571Z,35.40
2022-11-26T23:24:00.090Z,34.03
2022-11-26T23:26:30.681Z,31.92
2022-11-26T23:28:58.833Z,37.03
2022-11-26T23:31:30.996Z,37.05
2022-11-26T23:33:58.502Z,36.88
2022-11-26T23:36:26.236Z,33.35
2022-11-26T23:38:53.723Z,34.33
2022-11-26T23:41:21.134Z,34.58
2022-11-26T23:43:48.717Z,29.67
2022-11-26T23:46:21.844Z,33.10
2022-11-26T23:48:49.333Z,31.70
2022-11-26T23:51:30.559Z,29.00
2022-11-26T23:53:57.848Z,27.13
2022-11-26T23:56:31.267Z,30.52
2022-11-26T23:59:00.249Z,29.23
